createdAt,value
2016-09-08T00:00:32.293Z,0
2016-09-08T00:01:32.291Z,0
2016-09-08T00:02:32.603Z,0
2016-09-08T00:03:32.290Z,0
2016-09-08T00:04:32.571Z,0
2016-09-08T00:05:32.643Z,0
2016-09-08T00:06:32.570Z,0
2016-09-08T00:07:32.542Z,0
2016-09-08T00:08:32.533Z,0
2016-09-08T00:09:32.193Z,0
2016-09-08T00:10:32.500Z,0
2016-09-08T00:11:32.171Z,0
2016-09-08T00:12:32.158Z,0
2016-09-08T00:13:32.472Z,0
2016-09-08T00:14:32.454Z,0
2016-09-08T00:15:32.432Z,0
2016-09-08T00:16:32.105Z,0
2016-09-08T00:17:32.093Z,0
2016-09-08T00:18:32.409Z,0
2016-09-08T00:19:31.419Z,0
2016-09-08T00:20:32.380Z,0
2016-09-08T00:21:32.363Z,0
2016-09-08T00:22:32.360Z,0
2016-09-08T00:23:32.347Z,0
2016-09-08T00:24:32.011Z,0
2016-09-08T00:25:32.006Z,0
2016-09-08T00:26:32.302Z,0
2016-09-08T00:27:31.973Z,0
2016-09-08T00:28:32.286Z,0
2016-09-08T00:29:31.305Z,0
2016-09-08T00:30:31.622Z,0
2016-09-08T00:31:32.253Z,0
2016-09-08T00:32:31.586Z,0
2016-09-08T00:33:32.254Z,0
2016-09-08T00:34:32.215Z,0
2016-09-08T00:35:32.204Z,0
2016-09-08T00:36:31.872Z,0
2016-09-08T00:37:32.184Z,0
2016-09-08T00:38:31.843Z,0
2016-09-08T00:39:32.146Z,0
2016-09-08T00:40:31.823Z,0
2016-09-08T00:41:32.122Z,0
2016-09-08T00:42:32.097Z,0
2016-09-08T00:43:31.782Z,0
2016-09-08T00:44:32.079Z,0
2016-09-08T00:45:32.074Z,0
2016-09-08T00:46:31.760Z,0
2016-09-08T00:47:31.749Z,0
2016-09-08T00:48:31.721Z,0
2016-09-08T00:49:32.091Z,0
2016-09-08T00:50:31.713Z,0
2016-09-08T00:51:31.694Z,0
2016-09-08T00:52:31.675Z,0
2016-09-08T00:53:31.668Z,0
2016-09-08T00:54:31.974Z,0
2016-09-08T00:55:31.939Z,0
2016-09-08T00:56:31.322Z,0
2016-09-08T00:57:31.961Z,0
2016-09-08T00:58:31.943Z,0
2016-09-08T00:59:31.593Z,0
2016-09-08T01:00:31.961Z,0
2016-09-08T01:01:31.565Z,0
2016-09-08T01:02:31.233Z,0
2016-09-08T01:03:31.862Z,0
2016-09-08T01:04:31.582Z,0
2016-09-08T01:05:31.512Z,0
2016-09-08T01:06:31.191Z,0
2016-09-08T01:07:31.796Z,0
2016-09-08T01:08:31.788Z,0
2016-09-08T01:09:31.542Z,0
2016-09-08T01:10:31.813Z,0
2016-09-08T01:11:31.752Z,0
2016-09-08T01:12:31.422Z,0
2016-09-08T01:13:31.758Z,0
2016-09-08T01:14:31.767Z,0
2016-09-08T01:15:31.720Z,0
2016-09-08T01:16:31.754Z,0
2016-09-08T01:17:31.688Z,0
2016-09-08T01:18:31.697Z,0
2016-09-08T01:19:31.657Z,0
2016-09-08T01:20:31.640Z,0
2016-09-08T01:21:31.002Z,0
2016-09-08T01:22:30.971Z,0
2016-09-08T01:23:31.653Z,0
2016-09-08T01:24:31.273Z,0
2016-09-08T01:25:31.262Z,0
2016-09-08T01:26:31.262Z,0
2016-09-08T01:27:31.570Z,0
2016-09-08T01:28:31.539Z,0
2016-09-08T01:29:31.221Z,0
2016-09-08T01:30:31.530Z,0
2016-09-08T01:31:31.213Z,0
2016-09-08T01:32:31.190Z,0
2016-09-08T01:33:31.151Z,0
2016-09-08T01:34:30.512Z,0
2016-09-08T01:35:30.831Z,0
2016-09-08T01:36:30.832Z,0
2016-09-08T01:37:31.112Z,0
2016-09-08T01:38:31.441Z,0
2016-09-08T01:39:31.105Z,0
2016-09-08T01:40:31.104Z,0
2016-09-08T01:41:31.409Z,0
2016-09-08T01:42:31.070Z,0
2016-09-08T01:43:30.782Z,0
2016-09-08T01:44:31.069Z,0
2016-09-08T01:45:31.328Z,0
2016-09-08T01:46:31.330Z,0
2016-09-08T01:47:30.973Z,0
2016-09-08T01:48:30.654Z,0
2016-09-08T01:49:30.971Z,0
2016-09-08T01:50:30.970Z,0
2016-09-08T01:51:30.939Z,0
2016-09-08T01:52:31.255Z,0
2016-09-08T01:53:30.911Z,0
2016-09-08T01:54:30.603Z,0
2016-09-08T01:55:30.893Z,0
2016-09-08T01:56:31.211Z,0
2016-09-08T01:57:31.220Z,0
2016-09-08T01:58:31.157Z,0
2016-09-08T01:59:30.900Z,0
2016-09-08T02:00:30.820Z,0
2016-09-08T02:01:31.228Z,0
2016-09-08T02:02:30.801Z,0
2016-09-08T02:03:30.469Z,0
2016-09-08T02:04:31.140Z,0
2016-09-08T02:05:30.757Z,0
2016-09-08T02:06:31.064Z,0
2016-09-08T02:07:30.742Z,0
2016-09-08T02:08:30.726Z,0
2016-09-08T02:09:31.052Z,0
2016-09-08T02:10:30.695Z,0
2016-09-08T02:11:31.022Z,0
2016-09-08T02:12:30.671Z,0
2016-09-08T02:13:31.032Z,0
2016-09-08T02:14:30.646Z,0
2016-09-08T02:15:30.991Z,0
2016-09-08T02:16:30.942Z,0
2016-09-08T02:17:30.941Z,0
2016-09-08T02:18:30.931Z,0
2016-09-08T02:19:30.958Z,0
2016-09-08T02:20:30.592Z,0
2016-09-08T02:21:30.550Z,0
2016-09-08T02:22:30.901Z,0
2016-09-08T02:23:30.857Z,0
2016-09-08T02:24:30.527Z,0
2016-09-08T02:25:30.815Z,0
2016-09-08T02:26:30.502Z,0
2016-09-08T02:27:30.812Z,0
2016-09-08T02:28:30.832Z,0
2016-09-08T02:29:30.454Z,0
2016-09-08T02:30:30.111Z,0
2016-09-08T02:31:30.741Z,0
2016-09-08T02:32:30.753Z,0
2016-09-08T02:33:30.742Z,0
2016-09-08T02:34:30.062Z,0
2016-09-08T02:35:30.375Z,0
2016-09-08T02:36:30.061Z,0
2016-09-08T02:37:30.658Z,0
2016-09-08T02:38:30.651Z,0
2016-09-08T02:39:30.663Z,0
2016-09-08T02:40:30.640Z,0
2016-09-08T02:41:30.641Z,0
2016-09-08T02:42:29.968Z,0
2016-09-08T02:43:30.281Z,0
2016-09-08T02:44:30.591Z,0
2016-09-08T02:45:30.561Z,0
2016-09-08T02:46:30.219Z,0
2016-09-08T02:47:30.242Z,0
2016-09-08T02:48:30.528Z,0
2016-09-08T02:49:30.522Z,0
2016-09-08T02:50:30.490Z,0
2016-09-08T02:51:30.195Z,0
2016-09-08T02:52:30.469Z,0
2016-09-08T02:53:30.138Z,0
2016-09-08T02:54:30.449Z,0
2016-09-08T02:55:30.451Z,0
2016-09-08T02:56:30.119Z,0
2016-09-08T02:57:30.111Z,0
2016-09-08T02:58:30.397Z,0
2016-09-08T02:59:30.082Z,0
2016-09-08T03:00:30.370Z,0
2016-09-08T03:01:30.367Z,0
2016-09-08T03:02:30.355Z,0
2016-09-08T03:03:30.341Z,0
2016-09-08T03:04:30.328Z,0
2016-09-08T03:05:29.999Z,0
2016-09-08T03:06:29.981Z,0
2016-09-08T03:07:29.658Z,0
2016-09-08T03:08:29.637Z,0
2016-09-08T03:09:30.261Z,0
2016-09-08T03:10:30.270Z,0
2016-09-08T03:11:29.910Z,0
2016-09-08T03:12:29.911Z,0
2016-09-08T03:13:29.932Z,0
2016-09-08T03:14:30.181Z,0
2016-09-08T03:15:30.168Z,0
2016-09-08T03:16:30.168Z,0
2016-09-08T03:17:29.501Z,0
2016-09-08T03:18:30.132Z,0
2016-09-08T03:19:30.118Z,0
2016-09-08T03:20:29.791Z,0
2016-09-08T03:21:30.104Z,0
2016-09-08T03:22:30.163Z,0
2016-09-08T03:23:29.437Z,0
2016-09-08T03:24:30.062Z,0
2016-09-08T03:25:30.049Z,0
2016-09-08T03:26:30.051Z,0
2016-09-08T03:27:29.690Z,0
2016-09-08T03:28:30.051Z,0
2016-09-08T03:29:29.688Z,0
2016-09-08T03:30:30.050Z,0
2016-09-08T03:31:29.980Z,0
2016-09-08T03:32:29.949Z,0
2016-09-08T03:33:28.989Z,0
2016-09-08T03:34:29.614Z,0
2016-09-08T03:35:29.910Z,0
2016-09-08T03:36:29.959Z,0
2016-09-08T03:37:29.264Z,0
2016-09-08T03:38:29.891Z,0
2016-09-08T03:39:29.231Z,0
2016-09-08T03:40:29.850Z,0
2016-09-08T03:41:29.868Z,0
2016-09-08T03:42:29.830Z,0
2016-09-08T03:43:29.486Z,0
2016-09-08T03:44:29.171Z,0
2016-09-08T03:45:29.459Z,0
2016-09-08T03:46:29.463Z,0
2016-09-08T03:47:29.447Z,0
2016-09-08T03:48:29.501Z,0
2016-09-08T03:49:29.728Z,0
2016-09-08T03:50:29.400Z,0
2016-09-08T03:51:29.710Z,0
2016-09-08T03:52:29.681Z,0
2016-09-08T03:53:29.679Z,0
2016-09-08T03:54:29.349Z,0
2016-09-08T03:55:29.354Z,0
2016-09-08T03:56:29.686Z,0
2016-09-08T03:57:28.980Z,0
2016-09-08T03:58:29.303Z,0
2016-09-08T03:59:29.666Z,0
2016-09-08T04:00:29.320Z,0
2016-09-08T04:01:29.620Z,0
2016-09-08T04:02:29.650Z,0
2016-09-08T04:03:29.244Z,0
2016-09-08T04:04:29.230Z,0
2016-09-08T04:05:29.209Z,0
2016-09-08T04:06:29.219Z,0
2016-09-08T04:07:29.560Z,0
2016-09-08T04:08:29.158Z,0
2016-09-08T04:09:29.491Z,0
2016-09-08T04:10:29.490Z,0
2016-09-08T04:11:29.181Z,0
2016-09-08T04:12:29.101Z,0
2016-09-08T04:13:29.108Z,0
2016-09-08T04:14:29.390Z,0
2016-09-08T04:15:29.065Z,0
2016-09-08T04:16:29.368Z,0
2016-09-08T04:17:29.050Z,0
2016-09-08T04:18:28.707Z,0
2016-09-08T04:19:29.011Z,0
2016-09-08T04:20:29.340Z,4
2016-09-08T04:21:28.970Z,0
2016-09-08T04:22:29.309Z,0
2016-09-08T04:23:29.276Z,4
2016-09-08T04:24:28.941Z,0
2016-09-08T04:25:29.247Z,4
2016-09-08T04:26:28.938Z,4
2016-09-08T04:27:29.232Z,4
2016-09-08T04:28:28.908Z,8
2016-09-08T04:29:28.903Z,8
2016-09-08T04:30:29.196Z,8
2016-09-08T04:31:29.192Z,12
2016-09-08T04:32:29.138Z,12
2016-09-08T04:33:29.170Z,12
2016-09-08T04:34:28.518Z,16
2016-09-08T04:35:29.137Z,16
2016-09-08T04:36:28.832Z,24
2016-09-08T04:37:28.864Z,24
2016-09-08T04:38:28.811Z,28
2016-09-08T04:39:28.739Z,32
2016-09-08T04:40:29.057Z,36
2016-09-08T04:41:29.039Z,40
2016-09-08T04:42:29.029Z,48
2016-09-08T04:43:29.010Z,52
2016-09-08T04:44:29.010Z,60
2016-09-08T04:45:28.671Z,68
2016-09-08T04:46:28.947Z,72
2016-09-08T04:47:28.942Z,80
2016-09-08T04:48:28.957Z,92
2016-09-08T04:49:28.605Z,100
2016-09-08T04:50:28.900Z,112
2016-09-08T04:51:28.909Z,120
2016-09-08T04:52:28.879Z,132
2016-09-08T04:53:28.867Z,140
2016-09-08T04:54:28.861Z,156
2016-09-08T04:55:28.848Z,168
2016-09-08T04:56:28.514Z,184
2016-09-08T04:57:28.831Z,200
2016-09-08T04:58:28.483Z,216
2016-09-08T04:59:28.563Z,236
2016-09-08T05:00:28.787Z,252
2016-09-08T05:01:28.441Z,272
2016-09-08T05:02:28.119Z,292
2016-09-08T05:03:28.490Z,312
2016-09-08T05:04:28.088Z,332
2016-09-08T05:05:28.790Z,348
2016-09-08T05:06:28.378Z,364
2016-09-08T05:07:28.367Z,388
2016-09-08T05:08:28.740Z,412
2016-09-08T05:09:28.341Z,444
2016-09-08T05:10:28.662Z,472
2016-09-08T05:11:28.055Z,500
2016-09-08T05:12:27.660Z,516
2016-09-08T05:13:28.602Z,532
2016-09-08T05:14:28.265Z,552
2016-09-08T05:15:28.582Z,576
2016-09-08T05:16:28.247Z,620
2016-09-08T05:17:28.571Z,680
2016-09-08T05:18:28.220Z,744
2016-09-08T05:19:28.549Z,800
2016-09-08T05:20:28.168Z,844
2016-09-08T05:21:28.162Z,884
2016-09-08T05:22:28.161Z,920
2016-09-08T05:23:28.139Z,960
2016-09-08T05:24:28.123Z,988
2016-09-08T05:25:28.120Z,1004
2016-09-08T05:26:28.487Z,1028
2016-09-08T05:27:28.409Z,1076
2016-09-08T05:28:28.399Z,1148
2016-09-08T05:29:28.061Z,1228
2016-09-08T05:30:28.057Z,1280
2016-09-08T05:31:28.358Z,1300
2016-09-08T05:32:28.337Z,1316
2016-09-08T05:33:28.324Z,1364
2016-09-08T05:34:27.990Z,1432
2016-09-08T05:35:27.988Z,1504
2016-09-08T05:36:28.287Z,1588
2016-09-08T05:37:28.257Z,1648
2016-09-08T05:38:28.263Z,1696
2016-09-08T05:39:28.245Z,1736
2016-09-08T05:40:28.239Z,1788
2016-09-08T05:41:28.228Z,1840
2016-09-08T05:42:28.210Z,1900
2016-09-08T05:43:27.868Z,1956
2016-09-08T05:44:27.866Z,2004
2016-09-08T05:45:28.169Z,2040
2016-09-08T05:46:28.128Z,2088
2016-09-08T05:47:28.140Z,2164
2016-09-08T05:48:28.118Z,2232
2016-09-08T05:49:28.107Z,2316
2016-09-08T05:50:27.478Z,2380
2016-09-08T05:51:28.091Z,2440
2016-09-08T05:52:28.078Z,2496
2016-09-08T05:53:27.732Z,2556
2016-09-08T05:54:27.078Z,2612
2016-09-08T05:55:27.377Z,2668
2016-09-08T05:56:27.690Z,2724
2016-09-08T05:57:27.677Z,2776
2016-09-08T05:58:27.979Z,2832
2016-09-08T05:59:27.338Z,2880
2016-09-08T06:00:27.990Z,2928
2016-09-08T06:01:27.624Z,2968
2016-09-08T06:02:27.618Z,3004
2016-09-08T06:03:27.919Z,3048
2016-09-08T06:04:27.922Z,3092
2016-09-08T06:05:27.252Z,3140
2016-09-08T06:06:27.875Z,3188
2016-09-08T06:07:27.854Z,3232
2016-09-08T06:08:27.866Z,3292
2016-09-08T06:09:27.837Z,3352
2016-09-08T06:10:27.516Z,3416
2016-09-08T06:11:27.505Z,3472
2016-09-08T06:12:27.545Z,3528
2016-09-08T06:13:27.802Z,3596
2016-09-08T06:14:27.451Z,3656
2016-09-08T06:15:27.755Z,3712
2016-09-08T06:16:27.752Z,3772
2016-09-08T06:17:27.731Z,3828
2016-09-08T06:18:27.065Z,3884
2016-09-08T06:19:27.385Z,3940
2016-09-08T06:20:27.700Z,3992
2016-09-08T06:21:27.675Z,4052
2016-09-08T06:22:27.354Z,4112
2016-09-08T06:23:27.019Z,4176
2016-09-08T06:24:27.318Z,4232
2016-09-08T06:25:26.987Z,4288
2016-09-08T06:26:26.978Z,4356
2016-09-08T06:27:27.285Z,4420
2016-09-08T06:28:26.957Z,4476
2016-09-08T06:29:27.241Z,4532
2016-09-08T06:30:27.225Z,4604
2016-09-08T06:31:26.898Z,4676
2016-09-08T06:32:26.885Z,4736
2016-09-08T06:33:27.511Z,4804
2016-09-08T06:34:27.497Z,4860
2016-09-08T06:35:27.574Z,4936
2016-09-08T06:36:27.465Z,4984
2016-09-08T06:37:27.202Z,5036
2016-09-08T06:38:27.138Z,5096
2016-09-08T06:39:27.517Z,5164
2016-09-08T06:40:27.421Z,5212
2016-09-08T06:41:26.778Z,5272
2016-09-08T06:42:27.065Z,5340
2016-09-08T06:43:27.383Z,5420
2016-09-08T06:44:27.379Z,5508
2016-09-08T06:45:27.427Z,5596
2016-09-08T06:46:27.436Z,5668
2016-09-08T06:47:27.098Z,5756
2016-09-08T06:48:26.999Z,5832
2016-09-08T06:49:26.998Z,5896
2016-09-08T06:50:27.020Z,5988
2016-09-08T06:51:27.277Z,6056
2016-09-08T06:52:27.278Z,6120
2016-09-08T06:53:27.238Z,6196
2016-09-08T06:54:26.937Z,6272
2016-09-08T06:55:27.229Z,6364
2016-09-08T06:56:27.231Z,6452
2016-09-08T06:57:27.195Z,6524
2016-09-08T06:58:27.195Z,6580
2016-09-08T06:59:27.178Z,6632
2016-09-08T07:00:26.948Z,6668
2016-09-08T07:01:27.198Z,6724
2016-09-08T07:02:27.136Z,6792
2016-09-08T07:03:27.138Z,6968
2016-09-08T07:04:26.797Z,7228
2016-09-08T07:05:26.789Z,7424
2016-09-08T07:06:26.763Z,7520
2016-09-08T07:07:26.753Z,7572
2016-09-08T07:08:26.748Z,7636
2016-09-08T07:09:27.054Z,7668
2016-09-08T07:10:26.418Z,7704
2016-09-08T07:11:27.107Z,7696
2016-09-08T07:12:26.393Z,7684
2016-09-08T07:13:27.019Z,7672
2016-09-08T07:14:26.676Z,7628
2016-09-08T07:15:26.780Z,7580
2016-09-08T07:16:26.657Z,7548
2016-09-08T07:17:26.978Z,7512
2016-09-08T07:18:26.868Z,7520
2016-09-08T07:19:26.645Z,7548
2016-09-08T07:20:26.969Z,7576
2016-09-08T07:21:26.967Z,7588
2016-09-08T07:22:26.623Z,7624
2016-09-08T07:23:26.611Z,7660
2016-09-08T07:24:26.269Z,7664
2016-09-08T07:25:26.576Z,7688
2016-09-08T07:26:26.576Z,7740
2016-09-08T07:27:26.577Z,7792
2016-09-08T07:28:26.864Z,7864
2016-09-08T07:29:26.960Z,7964
2016-09-08T07:30:26.544Z,8068
2016-09-08T07:31:26.537Z,8188
2016-09-08T07:32:26.864Z,8280
2016-09-08T07:33:26.857Z,8340
2016-09-08T07:34:26.827Z,8384
2016-09-08T07:35:26.864Z,8448
2016-09-08T07:36:26.183Z,8472
2016-09-08T07:37:26.836Z,8496
2016-09-08T07:38:26.487Z,8644
2016-09-08T07:39:26.483Z,8732
2016-09-08T07:40:26.849Z,8856
2016-09-08T07:41:26.468Z,8964
2016-09-08T07:42:26.796Z,9112
2016-09-08T07:43:26.774Z,9292
2016-09-08T07:44:26.776Z,9432
2016-09-08T07:45:26.465Z,9480
2016-09-08T07:46:26.448Z,9564
2016-09-08T07:47:26.456Z,9628
2016-09-08T07:48:26.743Z,9724
2016-09-08T07:49:26.453Z,9852
2016-09-08T07:50:26.767Z,10048
2016-09-08T07:51:26.425Z,10796
2016-09-08T07:52:26.412Z,37344
2016-09-08T07:53:26.786Z,76352
2016-09-08T07:54:26.744Z,86048
2016-09-08T07:55:26.094Z,87040
2016-09-08T07:56:26.746Z,80576
2016-09-08T07:57:26.745Z,79200
2016-09-08T07:58:26.107Z,81696
2016-09-08T07:59:26.087Z,79168
2016-09-08T08:00:26.757Z,80192
2016-09-08T08:01:26.407Z,83904
2016-09-08T08:02:26.410Z,84192
2016-09-08T08:03:26.738Z,79552
2016-09-08T08:04:26.438Z,78592
2016-09-08T08:05:26.434Z,78400
2016-09-08T08:06:26.726Z,77984
2016-09-08T08:07:26.423Z,78880
2016-09-08T08:08:26.115Z,77728
2016-09-08T08:09:26.735Z,77760
2016-09-08T08:10:26.737Z,83168
2016-09-08T08:11:26.756Z,80960
2016-09-08T08:12:26.434Z,72480
2016-09-08T08:13:26.417Z,72928
2016-09-08T08:14:26.418Z,80160
2016-09-08T08:15:26.418Z,81984
2016-09-08T08:16:26.100Z,77984
2016-09-08T08:17:26.744Z,76896
2016-09-08T08:18:26.507Z,80864
2016-09-08T08:19:26.764Z,80256
2016-09-08T08:20:26.763Z,77888
2016-09-08T08:21:26.117Z,81728
2016-09-08T08:22:26.135Z,81600
2016-09-08T08:23:26.128Z,75904
2016-09-08T08:24:26.133Z,78592
2016-09-08T08:25:26.785Z,87424
2016-09-08T08:26:26.786Z,79296
2016-09-08T08:27:26.547Z,66368
2016-09-08T08:28:26.456Z,66944
2016-09-08T08:29:26.828Z,74912
2016-09-08T08:30:26.770Z,83072
2016-09-08T08:31:26.780Z,81184
2016-09-08T08:32:26.458Z,67968
2016-09-08T08:33:26.471Z,64768
2016-09-08T08:34:26.811Z,74688
2016-09-08T08:35:26.811Z,81376
2016-09-08T08:36:26.808Z,79488
2016-09-08T08:37:26.478Z,73824
2016-09-08T08:38:26.787Z,67904
2016-09-08T08:39:26.167Z,69760
2016-09-08T08:40:26.479Z,76640
2016-09-08T08:41:26.813Z,77120
2016-09-08T08:42:26.789Z,69504
2016-09-08T08:43:26.487Z,70592
2016-09-08T08:44:26.165Z,78720
2016-09-08T08:45:26.821Z,79808
2016-09-08T08:46:26.796Z,74880
2016-09-08T08:47:26.504Z,81472
2016-09-08T08:48:26.184Z,83072
2016-09-08T08:49:26.825Z,74560
2016-09-08T08:50:26.826Z,70752
2016-09-08T08:51:26.529Z,75008
2016-09-08T08:52:27.020Z,78432
2016-09-08T08:53:26.825Z,77184
2016-09-08T08:54:26.856Z,77696
2016-09-08T08:55:26.497Z,76736
2016-09-08T08:56:26.878Z,79072
2016-09-08T08:57:26.508Z,85120
2016-09-08T08:58:26.499Z,83328
2016-09-08T08:59:26.526Z,80832
2016-09-08T09:00:26.816Z,75136
2016-09-08T09:01:26.190Z,72512
2016-09-08T09:02:26.193Z,75328
2016-09-08T09:03:26.515Z,74720
2016-09-08T09:04:26.845Z,73664
2016-09-08T09:05:26.531Z,74048
2016-09-08T09:06:26.852Z,72832
2016-09-08T09:07:26.197Z,74304
2016-09-08T09:08:26.518Z,76224
2016-09-08T09:09:26.855Z,72576
2016-09-08T09:10:26.533Z,73504
2016-09-08T09:11:26.215Z,73248
2016-09-08T09:12:26.545Z,72384
2016-09-08T09:13:26.195Z,71360
2016-09-08T09:14:26.904Z,71744
2016-09-08T09:15:26.225Z,72512
2016-09-08T09:16:26.884Z,72320
2016-09-08T09:17:26.566Z,72160
2016-09-08T09:18:26.540Z,71584
2016-09-08T09:19:26.531Z,73504
2016-09-08T09:20:26.860Z,73696
2016-09-08T09:21:26.560Z,74560
2016-09-08T09:22:26.905Z,75264
2016-09-08T09:23:26.605Z,75520
2016-09-08T09:24:26.885Z,72096
2016-09-08T09:25:26.543Z,67200
2016-09-08T09:26:25.915Z,68896
2016-09-08T09:27:26.905Z,64736
2016-09-08T09:28:26.559Z,68864
2016-09-08T09:29:26.615Z,72352
2016-09-08T09:30:26.879Z,69888
2016-09-08T09:31:26.878Z,70336
2016-09-08T09:32:26.566Z,67264
2016-09-08T09:33:26.873Z,62784
2016-09-08T09:34:26.895Z,65056
2016-09-08T09:35:26.874Z,63488
2016-09-08T09:36:26.584Z,63296
2016-09-08T09:37:26.576Z,64480
2016-09-08T09:38:26.594Z,64928
2016-09-08T09:39:26.240Z,66560
2016-09-08T09:40:26.587Z,63168
2016-09-08T09:41:26.892Z,63424
2016-09-08T09:42:26.254Z,60736
2016-09-08T09:43:26.949Z,61408
2016-09-08T09:44:26.899Z,61248
2016-09-08T09:45:26.592Z,58976
2016-09-08T09:46:26.907Z,59200
2016-09-08T09:47:26.906Z,61248
2016-09-08T09:48:26.333Z,56896
2016-09-08T09:49:26.587Z,56000
2016-09-08T09:50:26.585Z,53600
2016-09-08T09:51:26.919Z,56832
2016-09-08T09:52:26.915Z,54944
2016-09-08T09:53:26.916Z,55520
2016-09-08T09:54:26.906Z,56160
2016-09-08T09:55:26.589Z,57088
2016-09-08T09:56:26.285Z,55808
2016-09-08T09:57:26.926Z,50144
2016-09-08T09:58:26.611Z,51456
2016-09-08T09:59:26.599Z,53088
2016-09-08T10:00:26.899Z,53056
2016-09-08T10:01:26.949Z,51456
2016-09-08T10:02:27.048Z,51392
2016-09-08T10:03:26.597Z,51936
2016-09-08T10:04:26.917Z,52288
2016-09-08T10:05:26.596Z,50848
2016-09-08T10:06:26.927Z,47936
2016-09-08T10:07:26.273Z,47680
2016-09-08T10:08:26.917Z,45824
2016-09-08T10:09:26.596Z,43904
2016-09-08T10:10:25.947Z,44768
2016-09-08T10:11:26.905Z,41824
2016-09-08T10:12:26.918Z,39040
2016-09-08T10:13:26.578Z,41504
2016-09-08T10:14:26.264Z,41632
2016-09-08T10:15:26.902Z,42368
2016-09-08T10:16:26.907Z,42112
2016-09-08T10:17:26.580Z,42400
2016-09-08T10:18:26.919Z,43008
2016-09-08T10:19:26.560Z,40960
2016-09-08T10:20:26.600Z,39008
2016-09-08T10:21:26.267Z,40992
2016-09-08T10:22:26.567Z,38592
2016-09-08T10:23:26.585Z,36768
2016-09-08T10:24:26.579Z,35424
2016-09-08T10:25:26.885Z,36032
2016-09-08T10:26:26.555Z,34336
2016-09-08T10:27:26.880Z,34880
2016-09-08T10:28:26.582Z,35360
2016-09-08T10:29:26.568Z,30336
2016-09-08T10:30:26.598Z,30048
2016-09-08T10:31:26.888Z,30688
2016-09-08T10:32:26.928Z,29120
2016-09-08T10:33:26.909Z,26688
2016-09-08T10:34:26.912Z,25856
2016-09-08T10:35:26.874Z,24128
2016-09-08T10:36:26.878Z,18944
2016-09-08T10:37:26.540Z,12872
2016-09-08T10:38:26.878Z,11796
2016-09-08T10:39:26.859Z,11768
2016-09-08T10:40:26.859Z,11624
2016-09-08T10:41:26.853Z,11784
2016-09-08T10:42:26.868Z,11584
2016-09-08T10:43:26.863Z,11560
2016-09-08T10:44:26.859Z,11604
2016-09-08T10:45:26.846Z,11876
2016-09-08T10:46:26.589Z,11456
2016-09-08T10:47:26.849Z,11064
2016-09-08T10:48:26.837Z,11136
2016-09-08T10:49:26.520Z,11056
2016-09-08T10:50:26.511Z,10808
2016-09-08T10:51:26.849Z,10972
2016-09-08T10:52:26.847Z,11028
2016-09-08T10:53:26.821Z,10928
2016-09-08T10:54:26.844Z,10944
2016-09-08T10:55:26.169Z,10920
2016-09-08T10:56:26.503Z,10736
2016-09-08T10:57:26.499Z,10588
2016-09-08T10:58:26.498Z,10408
2016-09-08T10:59:25.855Z,10360
2016-09-08T11:00:26.478Z,10376
2016-09-08T11:01:26.798Z,10256
2016-09-08T11:02:26.801Z,10280
2016-09-08T11:03:26.809Z,10304
2016-09-08T11:04:26.169Z,10272
2016-09-08T11:05:26.466Z,10356
2016-09-08T11:06:26.779Z,10268
2016-09-08T11:07:26.809Z,10212
2016-09-08T11:08:26.153Z,10244
2016-09-08T11:09:26.449Z,10164
2016-09-08T11:10:26.789Z,10236
2016-09-08T11:11:26.460Z,10348
2016-09-08T11:12:26.456Z,10320
2016-09-08T11:13:26.756Z,10044
2016-09-08T11:14:26.790Z,9888
2016-09-08T11:15:26.450Z,10012
2016-09-08T11:16:26.756Z,9976
2016-09-08T11:17:26.767Z,9944
2016-09-08T11:18:26.769Z,9780
2016-09-08T11:19:26.738Z,9744
2016-09-08T11:20:26.448Z,9512
2016-09-08T11:21:26.420Z,9632
2016-09-08T11:22:26.438Z,9624
2016-09-08T11:23:26.430Z,9468
2016-09-08T11:24:26.096Z,9692
2016-09-08T11:25:26.416Z,9704
2016-09-08T11:26:26.745Z,9552
2016-09-08T11:27:26.111Z,9720
2016-09-08T11:28:26.716Z,9724
2016-09-08T11:29:26.717Z,9412
2016-09-08T11:30:26.397Z,9560
2016-09-08T11:31:26.397Z,9504
2016-09-08T11:32:26.720Z,9392
2016-09-08T11:33:26.789Z,9176
2016-09-08T11:34:26.388Z,9196
2016-09-08T11:35:26.703Z,9256
2016-09-08T11:36:26.720Z,9340
2016-09-08T11:37:26.718Z,8952
2016-09-08T11:38:26.381Z,8924
2016-09-08T11:39:26.717Z,9068
2016-09-08T11:40:26.738Z,8988
2016-09-08T11:41:26.357Z,9232
2016-09-08T11:42:26.360Z,9216
2016-09-08T11:43:26.698Z,9064
2016-09-08T11:44:26.686Z,9268
2016-09-08T11:45:26.337Z,9368
2016-09-08T11:46:26.677Z,9216
2016-09-08T11:47:26.673Z,9428
2016-09-08T11:48:26.366Z,9408
2016-09-08T11:49:26.357Z,9396
2016-09-08T11:50:26.677Z,9336
2016-09-08T11:51:26.347Z,9316
2016-09-08T11:52:26.358Z,9356
2016-09-08T11:53:26.323Z,9316
2016-09-08T11:54:26.660Z,9292
2016-09-08T11:55:26.309Z,9224
2016-09-08T11:56:26.655Z,9256
2016-09-08T11:57:26.653Z,9308
2016-09-08T11:58:26.640Z,9316
2016-09-08T11:59:26.651Z,9188
2016-09-08T12:00:26.319Z,9204
2016-09-08T12:01:25.688Z,9356
2016-09-08T12:02:26.684Z,9260
2016-09-08T12:03:26.648Z,9180
2016-09-08T12:04:26.330Z,9300
2016-09-08T12:05:26.316Z,9276
2016-09-08T12:06:26.618Z,9368
2016-09-08T12:07:26.005Z,9268
2016-09-08T12:08:26.299Z,9328
2016-09-08T12:09:26.282Z,9384
2016-09-08T12:10:26.296Z,9436
2016-09-08T12:11:26.621Z,9472
2016-09-08T12:12:25.979Z,9444
2016-09-08T12:13:26.597Z,9520
2016-09-08T12:14:26.589Z,9468
2016-09-08T12:15:26.604Z,9432
2016-09-08T12:16:26.589Z,9520
2016-09-08T12:17:26.271Z,9440
2016-09-08T12:18:25.953Z,9420
2016-09-08T12:19:26.272Z,9324
2016-09-08T12:20:26.587Z,9344
2016-09-08T12:21:25.954Z,9388
2016-09-08T12:22:26.587Z,9284
2016-09-08T12:23:25.934Z,9356
2016-09-08T12:24:26.248Z,9348
2016-09-08T12:25:25.920Z,9308
2016-09-08T12:26:25.918Z,9276
2016-09-08T12:27:26.583Z,9348
2016-09-08T12:28:26.553Z,9208
2016-09-08T12:29:26.241Z,9224
2016-09-08T12:30:26.226Z,9456
2016-09-08T12:31:26.226Z,9364
2016-09-08T12:32:26.560Z,9240
2016-09-08T12:33:26.228Z,9228
2016-09-08T12:34:26.538Z,9252
2016-09-08T12:35:26.240Z,9212
2016-09-08T12:36:26.525Z,9208
2016-09-08T12:37:26.530Z,9232
2016-09-08T12:38:26.528Z,9200
2016-09-08T12:39:26.214Z,8872
2016-09-08T12:40:26.185Z,8896
2016-09-08T12:41:26.198Z,8956
2016-09-08T12:42:26.187Z,9052
2016-09-08T12:43:26.197Z,9048
2016-09-08T12:44:26.185Z,8812
2016-09-08T12:45:26.177Z,8864
2016-09-08T12:46:26.498Z,9084
2016-09-08T12:47:26.186Z,9076
2016-09-08T12:48:26.519Z,9004
2016-09-08T12:49:26.181Z,8944
2016-09-08T12:50:26.187Z,8940
2016-09-08T12:51:26.489Z,8892
2016-09-08T12:52:25.849Z,8804
2016-09-08T12:53:26.506Z,8712
2016-09-08T12:54:26.155Z,8636
2016-09-08T12:55:26.160Z,8660
2016-09-08T12:56:26.156Z,8660
2016-09-08T12:57:26.454Z,8784
2016-09-08T12:58:25.835Z,8788
2016-09-08T12:59:26.135Z,8724
2016-09-08T13:00:26.146Z,8704
2016-09-08T13:01:26.453Z,8580
2016-09-08T13:02:26.461Z,8692
2016-09-08T13:03:26.457Z,8432
2016-09-08T13:04:26.118Z,8620
2016-09-08T13:05:26.438Z,8608
2016-09-08T13:06:26.506Z,8704
2016-09-08T13:07:26.130Z,8808
2016-09-08T13:08:26.449Z,8656
2016-09-08T13:09:26.421Z,8872
2016-09-08T13:10:26.107Z,8652
2016-09-08T13:11:26.108Z,8656
2016-09-08T13:12:25.789Z,8728
2016-09-08T13:13:26.118Z,8640
2016-09-08T13:14:25.778Z,8636
2016-09-08T13:15:26.394Z,8704
2016-09-08T13:16:25.769Z,8816
2016-09-08T13:17:26.104Z,8868
2016-09-08T13:18:26.089Z,8808
2016-09-08T13:19:26.075Z,8764
2016-09-08T13:20:25.445Z,8680
2016-09-08T13:21:26.395Z,8592
2016-09-08T13:22:26.395Z,8488
2016-09-08T13:23:26.384Z,8596
2016-09-08T13:24:26.383Z,8468
2016-09-08T13:25:25.748Z,8292
2016-09-08T13:26:26.389Z,8204
2016-09-08T13:27:26.046Z,7688
2016-09-08T13:28:26.378Z,8312
2016-09-08T13:29:26.392Z,8400
2016-09-08T13:30:26.097Z,8424
2016-09-08T13:31:26.378Z,8404
2016-09-08T13:32:26.417Z,8428
2016-09-08T13:33:26.035Z,8468
2016-09-08T13:34:25.715Z,8532
2016-09-08T13:35:26.346Z,8432
2016-09-08T13:36:26.388Z,8316
2016-09-08T13:37:26.348Z,8368
2016-09-08T13:38:26.017Z,8296
2016-09-08T13:39:26.016Z,8308
2016-09-08T13:40:26.343Z,8340
2016-09-08T13:41:25.687Z,8484